sensor_id;sensor_type;location;lat;lon;timestamp;P1;P2;P0
84648;PMS5003;74877;52.392;16.888;2024-01-07T00:00:10;5.950101405896508;5.950101405896508;0.0
84648;PMS5003;74877;52.392;16.888;2024-01-07T00:05:11;14.894295243858668;14.894295243858668;2.9788590487717337
84648;PMS5003;74877;52.392;16.888;2024-01-07T00:10:10;5.927310413753305;5.927310413753305;0.9878850689588842
84648;PMS5003;74877;52.392;16.888;2024-01-07T00:15:10;6.931127768542568;6.931127768542568;2.9704833293753863
84648;PMS5003;74877;52.392;16.888;2024-01-07T00:20:11;12.839285608487046;9.876373544990035;3.950549417996014
84648;PMS5003;74877;52.392;16.888;2024-01-07T00:25:10;4.934150109575352;4.934150109575352;0.9868300219150704
84648;PMS5003;74877;52.392;16.888;2024-01-07T00:30:11;10.868096844023047;10.868096844023047;3.95203521600838
84648;PMS5003;74877;52.392;16.888;2024-01-07T00:35:10;8.901515529732928;4.945286405407182;0.9890572810814364
84648;PMS5003;74877;52.392;16.888;2024-01-07T00:40:10;7.958014903151201;7.958014903151201;0.9947518628939002
84648;PMS5003;74877;52.392;16.888;2024-01-07T00:45:11;5.946091191539449;5.946091191539449;0.9910151985899083
84648;PMS5003;74877;52.392;16.888;2024-01-07T00:50:10;6.919952250934704;6.919952250934704;2.965693821829159
84648;PMS5003;74877;52.392;16.888;2024-01-07T00:55:10;8.88929382327631;8.88929382327631;1.9753986273947357
84648;PMS5003;74877;52.392;16.888;2024-01-07T01:00:10;5.944263662868067;5.944263662868067;1.9814212209560225
84648;PMS5003;74877;52.392;16.888;2024-01-07T01:05:10;5.9511926421433845;5.9511926421433845;0.9918654403572307
84648;PMS5003;74877;52.392;16.888;2024-01-07T01:10:11;13.845079267484602;13.845079267484602;9.889342333917574
84648;PMS5003;74877;52.392;16.888;2024-01-07T01:15:10;5.9261958821842065;5.9261958821842065;0.9876993136973679
84648;PMS5003;74877;52.392;16.888;2024-01-07T01:20:10;4.9422061858539665;4.9422061858539665;0.0
84648;PMS5003;74877;52.392;16.888;2024-01-07T01:25:10;3.9532711446872573;3.9532711446872573;0.0
84648;PMS5003;74877;52.392;16.888;2024-01-07T01:30:10;9.896100034307178;9.896100034307178;1.9792200068614356
84648;PMS5003;74877;52.392;16.888;2024-01-07T01:35:11;3.9455754560264285;3.9455754560264285;0.0
84648;PMS5003;74877;52.392;16.888;2024-01-07T01:40:10;6.902571911215891;6.902571911215891;0.9860817016022703
84648;PMS5003;74877;52.392;16.888;2024-01-07T01:45:10;9.833754523868196;9.833754523868196;1.9667509047736391
84648;PMS5003;74877;52.392;16.888;2024-01-07T01:50:11;7.892148671065635;7.892148671065635;0.9865185838832043
84648;PMS5003;74877;52.392;16.888;2024-01-07T01:55:10;8.861751285282969;4.923195158490538;0.0
84648;PMS5003;74877;52.392;16.888;2024-01-07T02:00:10;6.892913913589106;6.892913913589106;0.9847019876555866
84648;PMS5003;74877;52.392;16.888;2024-01-07T02:05:10;7.859377143756432;7.859377143756432;0.0
84648;PMS5003;74877;52.392;16.888;2024-01-07T02:10:10;6.892473221886753;6.892473221886753;0.0
84648;PMS5003;74877;52.392;16.888;2024-01-07T02:15:11;8.85891541051541;8.85891541051541;2.9529718035051364
84648;PMS5003;74877;52.392;16.888;2024-01-07T02:20:10;4.937876874435936;4.937876874435936;0.9875753748871873
84648;PMS5003;74877;52.392;16.888;2024-01-07T02:25:10;2.968646009483565;2.968646009483565;0.0
84648;PMS5003;74877;52.392;16.888;2024-01-07T02:30:11;10.884360478864402;7.915898530083202;1.9789746325208004
84648;PMS5003;74877;52.392;16.888;2024-01-07T02:35:10;10.895803834943269;4.952638106792395;0.9905276213584789
84648;PMS5003;74877;52.392;16.888;2024-01-07T02:40:11;12.902900572433458;6.947715692848785;0.9925308132641121
84648;PMS5003;74877;52.392;16.888;2024-01-07T02:45:10;3.97637707468534;3.97637707468534;0.994094268671335
84648;PMS5003;74877;52.392;16.888;2024-01-07T02:50:10;3.9811528083672916;3.9811528083672916;0.0
84648;PMS5003;74877;52.392;16.888;2024-01-07T02:55:11;4.017635398632228;4.017635398632228;1.004408849658057
84648;PMS5003;74877;52.392;16.888;2024-01-07T03:00:10;7.030861947606399;7.030861947606399;1.004408849658057
84648;PMS5003;74877;52.392;16.888;2024-01-07T03:05:10;4.04592421558938;4.04592421558938;0.0
84648;PMS5003;74877;52.392;16.888;2024-01-07T03:10:10;5.063400792199099;5.063400792199099;1.0126801584398197
84648;PMS5003;74877;52.392;16.888;2024-01-07T03:15:10;3.041777545231794;3.041777545231794;0.0
84648;PMS5003;74877;52.392;16.888;2024-01-07T03:20:11;5.050546568292795;5.050546568292795;2.0202186273171177
84648;PMS5003;74877;52.392;16.888;2024-01-07T03:25:10;6.058671816714837;6.058671816714837;3.0293359083574183
84648;PMS5003;74877;52.392;16.888;2024-01-07T03:30:10;4.037347385920954;4.037347385920954;1.0093368464802386
84648;PMS5003;74877;52.392;16.888;2024-01-07T03:35:10;7.064583681956433;7.064583681956433;2.018452480558981
84648;PMS5003;74877;52.392;16.888;2024-01-07T03:40:10;3.026515849788385;3.026515849788385;0.0
84648;PMS5003;74877;52.392;16.888;2024-01-07T03:45:11;5.065300666708886;5.065300666708886;1.0130601333417772
84648;PMS5003;74877;52.392;16.888;2024-01-07T03:50:10;4.051806581698573;4.051806581698573;0.0
84648;PMS5003;74877;52.392;16.888;2024-01-07T03:55:10;4.028226368457039;4.028226368457039;1.0070565921142598
84648;PMS5003;74877;52.392;16.888;2024-01-07T04:00:11;4.045705485945143;4.045705485945143;0.0
84648;PMS5003;74877;52.392;16.888;2024-01-07T04:05:10;4.073211213146442;4.073211213146442;0.0
84648;PMS5003;74877;52.392;16.888;2024-01-07T04:10:10;3.0432333388912647;3.0432333388912647;0.0
84648;PMS5003;74877;52.392;16.888;2024-01-07T04:15:10;12.233525742972878;5.097302392905366;1.0194604785810732
84648;PMS5003;74877;52.392;16.888;2024-01-07T04:20:10;8.129867351911885;5.081167094944928;1.0162334189889857
84648;PMS5003;74877;52.392;16.888;2024-01-07T04:25:11;8.14092368762906;8.14092368762906;1.0176154609536325
84648;PMS5003;74877;52.392;16.888;2024-01-07T04:30:10;5.064486892913614;5.064486892913614;1.0128973785827227
84648;PMS5003;74877;52.392;16.888;2024-01-07T04:35:10;7.112513212232376;7.112513212232376;2.0321466320663935
84648;PMS5003;74877;52.392;16.888;2024-01-07T04:40:11;8.110542768635527;8.110542768635527;2.027635692158882
84648;PMS5003;74877;52.392;16.888;2024-01-07T04:45:10;7.107646012108923;7.107646012108923;0.0
84648;PMS5003;74877;52.392;16.888;2024-01-07T04:50:10;5.07608594515383;5.07608594515383;1.015217189030766
84648;PMS5003;74877;52.392;16.888;2024-01-07T04:55:10;10.14195590308373;6.085173541850238;1.014195590308373
84648;PMS5003;74877;52.392;16.888;2024-01-07T05:00:10;11.101488643074395;8.073809922235924;1.0092262402794905
84648;PMS5003;74877;52.392;16.888;2024-01-07T05:05:11;6.037293219727087;6.037293219727087;1.0062155366211811
84648;PMS5003;74877;52.392;16.888;2024-01-07T05:10:10;7.03838537188466;7.03838537188466;0.0
84648;PMS5003;74877;52.392;16.888;2024-01-07T05:15:10;6.012757361714877;6.012757361714877;0.0
84648;PMS5003;74877;52.392;16.888;2024-01-07T05:20:10;4.006665641915702;4.006665641915702;1.0016664104789255
84648;PMS5003;74877;52.392;16.888;2024-01-07T05:25:10;4.996170056245163;4.996170056245163;0.0
84648;PMS5003;74877;52.392;16.888;2024-01-07T05:30:11;5.994704425830518;5.994704425830518;0.0
84648;PMS5003;74877;52.392;16.888;2024-01-07T05:35:10;3.9924933962335922;3.9924933962335922;0.0
84648;PMS5003;74877;52.392;16.888;2024-01-07T05:40:10;4.9719672909195864;4.9719672909195864;0.9943934581839173
84648;PMS5003;74877;52.392;16.888;2024-01-07T05:45:11;8.934406855631824;8.934406855631824;1.985423745695961
84648;PMS5003;74877;52.392;16.888;2024-01-07T05:50:10;5.95590923349859;5.95590923349859;0.0
84648;PMS5003;74877;52.392;16.888;2024-01-07T05:55:10;12.889519755562565;12.889519755562565;2.9745045589759767
84648;PMS5003;74877;52.392;16.888;2024-01-07T06:00:10;14.82939393045643;9.886262620304286;0.9886262620304287
84648;PMS5003;74877;52.392;16.888;2024-01-07T06:05:10;5.913110990537196;5.913110990537196;0.985518498422866
84648;PMS5003;74877;52.392;16.888;2024-01-07T06:10:11;8.887620373624637;8.887620373624637;0.0
84648;PMS5003;74877;52.392;16.888;2024-01-07T06:15:10;7.883646527006329;7.883646527006329;2.956367447627373
84648;PMS5003;74877;52.392;16.888;2024-01-07T06:20:10;4.914973554537272;4.914973554537272;0.0
84648;PMS5003;74877;52.392;16.888;2024-01-07T06:25:10;3.932994498190707;3.932994498190707;0.9832486245476767
84648;PMS5003;74877;52.392;16.888;2024-01-07T06:30:10;4.916877261934098;4.916877261934098;0.9833754523868196
84648;PMS5003;74877;52.392;16.888;2024-01-07T06:35:11;5.908589534932568;5.908589534932568;0.0
84648;PMS5003;74877;52.392;16.888;2024-01-07T06:40:10;6.875169734719413;6.875169734719413;3.9286684198396644
84648;PMS5003;74877;52.392;16.888;2024-01-07T06:45:10;6.883628166707736;6.883628166707736;0.0
84648;PMS5003;74877;52.392;16.888;2024-01-07T06:50:11;4.926024380709676;4.926024380709676;0.0
84648;PMS5003;74877;52.392;16.888;2024-01-07T06:55:10;6.887615822537323;6.887615822537323;1.9678902350106637
84648;PMS5003;74877;52.392;16.888;2024-01-07T07:00:10;9.847019876555866;4.923509938277933;0.9847019876555866
84648;PMS5003;74877;52.392;16.888;2024-01-07T07:05:10;8.834327954070053;4.907959974483363;0.9815919948966727
84648;PMS5003;74877;52.392;16.888;2024-01-07T07:10:10;3.9345154029603777;3.9345154029603777;0.0
84648;PMS5003;74877;52.392;16.888;2024-01-07T07:15:11;4.902504123521468;4.902504123521468;0.0
84648;PMS5003;74877;52.392;16.888;2024-01-07T07:20:10;10.78550907174723;10.78550907174723;4.902504123521468
84648;PMS5003;74877;52.392;16.888;2024-01-07T07:25:10;6.850827094127332;6.850827094127332;0.9786895848753332
84648;PMS5003;74877;52.392;16.888;2024-01-07T07:30:11;4.889213172356246;4.889213172356246;0.0
84648;PMS5003;74877;52.392;16.888;2024-01-07T07:35:10;13.702564060630914;7.830036606074808;1.957509151518702
84648;PMS5003;74877;52.392;16.888;2024-01-07T07:40:11;11.723114474065248;11.723114474065248;2.930778618516312
84648;PMS5003;74877;52.392;16.888;2024-01-07T07:45:10;4.889539606837112;4.889539606837112;0.9779079213674224
84648;PMS5003;74877;52.392;16.888;2024-01-07T07:50:10;3.9011136543449134;3.9011136543449134;0.9752784135862284
84648;PMS5003;74877;52.392;16.888;2024-01-07T07:55:11;4.88463103086052;4.88463103086052;0.976926206172104
84648;PMS5003;74877;52.392;16.888;2024-01-07T08:00:10;4.881673408409058;4.881673408409058;0.9763346816818116
84648;PMS5003;74877;52.392;16.888;2024-01-07T08:05:10;6.846725514132615;6.846725514132615;2.934310934628263
84648;PMS5003;74877;52.392;16.888;2024-01-07T08:10:11;4.886597568444577;4.886597568444577;0.9773195136889153
84648;PMS5003;74877;52.392;16.888;2024-01-07T08:15:10;12.736447500959963;8.817540577587668;1.9594534616861483
84648;PMS5003;74877;52.392;16.888;2024-01-07T08:20:11;5.894532857817325;5.894532857817325;1.964844285939108
84648;PMS5003;74877;52.392;16.888;2024-01-07T08:25:10;8.869666485805794;6.898629488960062;0.985518498422866
84648;PMS5003;74877;52.392;16.888;2024-01-07T08:30:10;15.835721772792805;8.907593497195952;1.9794652215991007
84648;PMS5003;74877;52.392;16.888;2024-01-07T08:35:10;9.883177861718142;9.883177861718142;2.9649533585154426
84648;PMS5003;74877;52.392;16.888;2024-01-07T08:40:10;5.9328666316274;5.9328666316274;0.9888111052712333
84648;PMS5003;74877;52.392;16.888;2024-01-07T08:45:11;7.938796640882391;5.954097480661793;0.9923495801102988
84648;PMS5003;74877;52.392;16.888;2024-01-07T08:50:10;13.874212780258715;7.928121588719266;1.9820303971798165
84648;PMS5003;74877;52.392;16.888;2024-01-07T08:55:10;4.982077580849801;4.982077580849801;0.9964155161699602
84648;PMS5003;74877;52.392;16.888;2024-01-07T09:00:11;3.9964696172203453;3.9964696172203453;0.9991174043050863
84648;PMS5003;74877;52.392;16.888;2024-01-07T09:05:10;10.014936932271793;10.014936932271793;1.0014936932271792
84648;PMS5003;74877;52.392;16.888;2024-01-07T09:20:10;15.28323756221257;9.169942537327541;2.0377650082950094
84648;PMS5003;74877;52.392;16.888;2024-01-07T09:25:11;7.151198072999944;7.151198072999944;2.0431994494285552
84648;PMS5003;74877;52.392;16.888;2024-01-07T09:30:10;11.306127819129786;11.306127819129786;3.0834894052172146
84648;PMS5003;74877;52.392;16.888;2024-01-07T09:35:10;5.158803566505143;5.158803566505143;0.0
84648;PMS5003;74877;52.392;16.888;2024-01-07T09:40:10;3.1008716063319124;3.1008716063319124;0.0
84648;PMS5003;74877;52.392;16.888;2024-01-07T09:45:10;11.41238598481202;7.262427444880377;1.037489634982911
84648;PMS5003;74877;52.392;16.888;2024-01-07T09:50:10;6.247968991662309;6.247968991662309;3.1239844958311545
84648;PMS5003;74877;52.392;16.888;2024-01-07T09:55:10;6.2602953166484445;6.2602953166484445;1.0433825527747407
84648;PMS5003;74877;52.392;16.888;2024-01-07T10:00:10;5.2453030474966384;5.2453030474966384;1.0490606094993276
84648;PMS5003;74877;52.392;16.888;2024-01-07T10:05:11;9.497155092674994;9.497155092674994;3.1657183642249977
84648;PMS5003;74877;52.392;16.888;2024-01-07T10:15:10;11.709276714283293;11.709276714283293;3.1934391038954435
84648;PMS5003;74877;52.392;16.888;2024-01-07T10:20:11;12.797724094279443;7.465339054996342;3.199431023569861
84648;PMS5003;74877;52.392;16.888;2024-01-07T10:25:10;6.459682217811048;6.459682217811048;0.0
84648;PMS5003;74877;52.392;16.888;2024-01-07T10:30:11;14.015371219871728;8.624843827613372;3.2343164353550145
84648;PMS5003;74877;52.392;16.888;2024-01-07T10:35:10;16.22220927353835;9.73332556412301;3.24444185470767
84648;PMS5003;74877;52.392;16.888;2024-01-07T10:40:10;9.780173354657412;9.780173354657412;3.2600577848858046
84648;PMS5003;74877;52.392;16.888;2024-01-07T10:45:10;13.039780853373513;13.039780853373513;3.259945213343378
84648;PMS5003;74877;52.392;16.888;2024-01-07T10:50:10;11.952719611759592;11.952719611759592;2.173221747592653
84648;PMS5003;74877;52.392;16.888;2024-01-07T10:55:10;17.44882834732619;17.44882834732619;4.362207086831548
84648;PMS5003;74877;52.392;16.888;2024-01-07T11:00:10;15.25066055379205;15.25066055379205;5.446664483497161
84648;PMS5003;74877;52.392;16.888;2024-01-07T11:05:10;10.89887818080679;10.89887818080679;2.179775636161358
84648;PMS5003;74877;52.392;16.888;2024-01-07T11:10:11;13.09984400822292;9.824883006167191;4.366614669407641
84648;PMS5003;74877;52.392;16.888;2024-01-07T11:15:10;13.185402725274995;13.185402725274995;4.395134241758331
84648;PMS5003;74877;52.392;16.888;2024-01-07T11:20:10;7.723351946737331;7.723351946737331;2.2066719847820946
84648;PMS5003;74877;52.392;16.888;2024-01-07T11:25:10;13.252058483473041;13.252058483473041;4.417352827824347
84648;PMS5003;74877;52.392;16.888;2024-01-07T11:30:10;11.081646454525087;11.081646454525087;5.5408232272625435
84648;PMS5003;74877;52.392;16.888;2024-01-07T11:35:11;9.985631221657057;9.985631221657057;3.3285437405523526
84648;PMS5003;74877;52.392;16.888;2024-01-07T11:40:10;9.943692532886772;9.943692532886772;3.3145641776289243
84648;PMS5003;74877;52.392;16.888;2024-01-07T11:45:10;8.830010251530796;8.830010251530796;4.415005125765398
84648;PMS5003;74877;52.392;16.888;2024-01-07T11:50:10;13.273891152237105;13.273891152237105;7.743103172138312
84648;PMS5003;74877;52.392;16.888;2024-01-07T11:55:10;10.018945218699088;10.018945218699088;3.3396484062330294
84648;PMS5003;74877;52.392;16.888;2024-01-07T12:00:11;22.322109005858792;16.741581754394094;6.696632701757638
84648;PMS5003;74877;52.392;16.888;2024-01-07T12:05:10;10.036713421012655;10.036713421012655;2.2303807602250343
84648;PMS5003;74877;52.392;16.888;2024-01-07T12:10:10;5.57283593581014;5.57283593581014;1.114567187162028
84648;PMS5003;74877;52.392;16.888;2024-01-07T12:15:11;12.262044989794807;12.262044989794807;1.1147313627086188
84648;PMS5003;74877;52.392;16.888;2024-01-07T12:20:10;17.894532953938356;17.894532953938356;3.355224928863442
84648;PMS5003;74877;52.392;16.888;2024-01-07T12:25:10;14.560197972142188;14.560197972142188;4.480060914505288
84648;PMS5003;74877;52.392;16.888;2024-01-07T12:30:10;11.19438132070054;11.19438132070054;2.238876264140108
84648;PMS5003;74877;52.392;16.888;2024-01-07T12:35:10;13.433257584840648;13.433257584840648;3.358314396210162
84648;PMS5003;74877;52.392;16.888;2024-01-07T12:40:11;13.400299636404466;13.400299636404466;3.3500749091011164
84648;PMS5003;74877;52.392;16.888;2024-01-07T12:45:10;10.034648958813847;6.689765972542564;1.1149609954237607
84648;PMS5003;74877;52.392;16.888;2024-01-07T12:50:10;9.981387754091978;9.981387754091978;3.327129251363993
84648;PMS5003;74877;52.392;16.888;2024-01-07T12:55:11;11.05986625532718;8.847893004261744;2.211973251065436
84648;PMS5003;74877;52.392;16.888;2024-01-07T13:00:10;14.312571655430602;14.312571655430602;5.504835252088694
84648;PMS5003;74877;52.392;16.888;2024-01-07T13:05:11;9.890962772118002;9.890962772118002;2.1979917271373335
84648;PMS5003;74877;52.392;16.888;2024-01-07T13:10:10;10.940936946554386;10.940936946554386;3.282281083966316
84648;PMS5003;74877;52.392;16.888;2024-01-07T13:15:10;10.927497545272798;10.927497545272798;2.1854995090545595
84648;PMS5003;74877;52.392;16.888;2024-01-07T13:20:11;8.749850574846132;8.749850574846132;1.0937313218557665
84648;PMS5003;74877;52.392;16.888;2024-01-07T13:25:10;10.87733844526727;10.87733844526727;4.350935378106907
84648;PMS5003;74877;52.392;16.888;2024-01-07T13:30:10;4.343736621991891;4.343736621991891;0.0
84648;PMS5003;74877;52.392;16.888;2024-01-07T13:35:10;6.498771473579974;6.498771473579974;0.0
84648;PMS5003;74877;52.392;16.888;2024-01-07T13:40:10;4.310071657806843;4.310071657806843;0.0
84648;PMS5003;74877;52.392;16.888;2024-01-07T13:45:11;7.531322874469091;7.531322874469091;3.2277098033438962
84648;PMS5003;74877;52.392;16.888;2024-01-07T13:50:10;4.306139548748631;4.306139548748631;0.0
84648;PMS5003;74877;52.392;16.888;2024-01-07T13:55:10;11.828838993614982;11.828838993614982;2.1506979988390875
84648;PMS5003;74877;52.392;16.888;2024-01-07T14:00:10;9.65732960478179;9.65732960478179;2.1460732455070644
84648;PMS5003;74877;52.392;16.888;2024-01-07T14:05:10;11.80780895660822;4.293748711493898;1.0734371778734746
84648;PMS5003;74877;52.392;16.888;2024-01-07T14:10:10;14.928358398311614;8.530490513320922;2.1326226283302305
84648;PMS5003;74877;52.392;16.888;2024-01-07T14:15:10;7.4765983668203315;7.4765983668203315;2.136170961948666
84648;PMS5003;74877;52.392;16.888;2024-01-07T14:20:10;6.385623079148039;6.385623079148039;2.1285410263826794
84648;PMS5003;74877;52.392;16.888;2024-01-07T14:25:11;12.745492382471328;12.745492382471328;5.31062182602972
84648;PMS5003;74877;52.392;16.888;2024-01-07T14:30:10;14.831579520228141;8.475188297273224;2.118797074318306
84648;PMS5003;74877;52.392;16.888;2024-01-07T14:35:10;9.509327157557118;9.509327157557118;2.1131838127904707
84648;PMS5003;74877;52.392;16.888;2024-01-07T14:40:11;13.705563302079495;6.325644600959767;1.0542741001599611
84648;PMS5003;74877;52.392;16.888;2024-01-07T14:45:10;13.697545664833699;10.536573588333615;2.107314717666723
84648;PMS5003;74877;52.392;16.888;2024-01-07T14:50:11;3.1595143299946393;3.1595143299946393;0.0
84648;PMS5003;74877;52.392;16.888;2024-01-07T14:55:10;4.198946569005118;4.198946569005118;0.0
84648;PMS5003;74877;52.392;16.888;2024-01-07T15:00:10;10.492411085887973;10.492411085887973;3.1477233257663917
84648;PMS5003;74877;52.392;16.888;2024-01-07T15:05:11;9.434217054639236;9.434217054639236;1.0482463394043595
84648;PMS5003;74877;52.392;16.888;2024-01-07T15:10:10;7.332638218528893;7.332638218528893;0.0
84648;PMS5003;74877;52.392;16.888;2024-01-07T15:15:10;3.1407823005968596;3.1407823005968596;0.0
84648;PMS5003;74877;52.392;16.888;2024-01-07T15:20:10;6.277725512328303;6.277725512328303;1.0462875853880504
84648;PMS5003;74877;52.392;16.888;2024-01-07T15:25:10;9.420292368099739;9.420292368099739;2.093398304022164
84648;PMS5003;74877;52.392;16.888;2024-01-07T15:30:11;12.498189706771814;12.498189706771814;3.1245474266929536
84648;PMS5003;74877;52.392;16.888;2024-01-07T15:35:10;8.344829258493391;8.344829258493391;2.0862073146233477
84648;PMS5003;74877;52.392;16.888;2024-01-07T15:40:10;12.513892437762681;7.299770588694898;1.0428243698135569
84648;PMS5003;74877;52.392;16.888;2024-01-07T15:45:11;9.380381524828824;9.380381524828824;2.0845292277397385
84648;PMS5003;74877;52.392;16.888;2024-01-07T15:50:10;6.234089984794987;6.234089984794987;2.0780299949316623
84648;PMS5003;74877;52.392;16.888;2024-01-07T15:55:11;7.285019661227146;7.285019661227146;3.122151283383063
84648;PMS5003;74877;52.392;16.888;2024-01-07T16:00:10;3.1229980834947457;3.1229980834947457;0.0
84648;PMS5003;74877;52.392;16.888;2024-01-07T16:05:10;4.156059989863325;4.156059989863325;0.0
84648;PMS5003;74877;52.392;16.888;2024-01-07T16:10:11;8.29262679847362;8.29262679847362;2.073156699618405
84648;PMS5003;74877;52.392;16.888;2024-01-07T16:15:10;9.297336671885379;9.297336671885379;1.0330374079872644
84648;PMS5003;74877;52.392;16.888;2024-01-07T16:20:10;6.19557847512451;6.19557847512451;0.0
84648;PMS5003;74877;52.392;16.888;2024-01-07T16:25:10;3.086947193728575;3.086947193728575;0.0
84648;PMS5003;74877;52.392;16.888;2024-01-07T16:30:10;19.5421115968556;13.370918461006463;3.0855965679245685
84648;PMS5003;74877;52.392;16.888;2024-01-07T16:35:11;8.199141947671702;8.199141947671702;2.0497854869179255
84648;PMS5003;74877;52.392;16.888;2024-01-07T16:40:10;7.178884285280752;7.178884285280752;2.0511097957945004
84648;PMS5003;74877;52.392;16.888;2024-01-07T16:45:10;10.232531886699173;10.232531886699173;3.069759566009752
84648;PMS5003;74877;52.392;16.888;2024-01-07T16:50:11;12.2448307233128;12.2448307233128;8.163220482208533
84648;PMS5003;74877;52.392;16.888;2024-01-07T16:55:10;18.29508101335553;18.29508101335553;12.196720675570354
84648;PMS5003;74877;52.392;16.888;2024-01-07T17:00:10;23.368458135544568;23.368458135544568;18.288358540860965
84648;PMS5003;74877;52.392;16.888;2024-01-07T17:05:10;19.240923010356575;14.177522218157476;9.114121425958377
84648;PMS5003;74877;52.392;16.888;2024-01-07T17:10:10;17.19982196794632;17.19982196794632;14.1645592677205
84648;PMS5003;74877;52.392;16.888;2024-01-07T17:15:11;11.149618260325694;11.149618260325694;4.054406640118434
84648;PMS5003;74877;52.392;16.888;2024-01-07T17:20:10;10.095578681726533;10.095578681726533;6.057347209035919
84648;PMS5003;74877;52.392;16.888;2024-01-07T17:25:10;9.088007725072254;9.088007725072254;3.0293359083574183
84648;PMS5003;74877;52.392;16.888;2024-01-07T17:30:11;12.09673218325889;12.09673218325889;5.040305076357871
84648;PMS5003;74877;52.392;16.888;2024-01-07T17:35:10;35.12446202289763;35.12446202289763;29.10312567611518
84648;PMS5003;74877;52.392;16.888;2024-01-07T17:40:11;33.098518499879205;27.08060604535571;21.062693590832218
84648;PMS5003;74877;52.392;16.888;2024-01-07T17:45:10;30.065508785913785;30.065508785913785;24.05240702873103
84648;PMS5003;74877;52.392;16.888;2024-01-07T17:50:10;15.969035409517616;15.969035409517616;9.98064713094851
84648;PMS5003;74877;52.392;16.888;2024-01-07T17:55:11;17.07302118017526;17.07302118017526;10.042953635397211
84648;PMS5003;74877;52.392;16.888;2024-01-07T18:00:10;33.03597254335013;33.03597254335013;25.0272519267804
84648;PMS5003;74877;52.392;16.888;2024-01-07T18:05:10;57.06213439305932;51.05559393063202;44.04796339113351
84648;PMS5003;74877;52.392;16.888;2024-01-07T18:10:10;37.995214880211115;37.995214880211115;31.995970425440937
84648;PMS5003;74877;52.392;16.888;2024-01-07T18:15:10;15.011151586515705;15.011151586515705;6.004460634606282
84648;PMS5003;74877;52.392;16.888;2024-01-07T18:20:11;20.961821305806307;14.972729504147363;9.981819669431575
84648;PMS5003;74877;52.392;16.888;2024-01-07T18:25:10;32.86998810017813;32.86998810017813;25.89756638195853
84648;PMS5003;74877;52.392;16.888;2024-01-07T18:30:10;46.95303411584673;40.95902976063225;30.96902250194146
84648;PMS5003;74877;52.392;16.888;2024-01-07T18:35:11;25.889855615301023;25.889855615301023;22.90256458276629
84648;PMS5003;74877;52.392;16.888;2024-01-07T18:40:10;22.92842810248177;22.92842810248177;17.943987210637907
84648;PMS5003;74877;52.392;16.888;2024-01-07T18:45:11;32.0606866305523;32.0606866305523;26.04930788732374
84648;PMS5003;74877;52.392;16.888;2024-01-07T18:50:10;67.91219271317779;67.91219271317779;58.92381426584543
84648;PMS5003;74877;52.392;16.888;2024-01-07T18:55:10;72.62994922679145;72.62994922679145;61.68571030220644